sensor_id;sensor_type;location;lat;lon;timestamp;pressure;altitude;pressure_sealevel;temperature
71640;BMP280;60912;48.968;10.124;2022-10-31T00:01:53;97133.53;;;11.60
71640;BMP280;60912;48.968;10.124;2022-10-31T00:04:22;97140.88;;;11.57
71640;BMP280;60912;48.968;10.124;2022-10-31T00:07:22;97138.75;;;11.63
71640;BMP280;60912;48.968;10.124;2022-10-31T00:09:54;97135.53;;;11.59
71640;BMP280;60912;48.968;10.124;2022-10-31T00:12:29;97136.28;;;11.60
71640;BMP280;60912;48.968;10.124;2022-10-31T00:14:54;97134.19;;;11.52
71640;BMP280;60912;48.968;10.124;2022-10-31T00:17:25;97130.38;;;11.56
71640;BMP280;60912;48.968;10.124;2022-10-31T00:19:53;97140.94;;;11.65
71640;BMP280;60912;48.968;10.124;2022-10-31T00:22:22;97135.75;;;11.61
71640;BMP280;60912;48.968;10.124;2022-10-31T00:24:50;97131.38;;;11.66
71640;BMP280;60912;48.968;10.124;2022-10-31T00:27:18;97133.81;;;11.69
71640;BMP280;60912;48.968;10.124;2022-10-31T00:29:44;97138.00;;;11.63
71640;BMP280;60912;48.968;10.124;2022-10-31T00:32:09;97138.00;;;11.63
71640;BMP280;60912;48.968;10.124;2022-10-31T00:34:34;97143.53;;;11.63
71640;BMP280;60912;48.968;10.124;2022-10-31T00:37:00;97136.63;;;11.56
71640;BMP280;60912;48.968;10.124;2022-10-31T00:39:25;97131.97;;;11.51
71640;BMP280;60912;48.968;10.124;2022-10-31T00:41:51;97136.34;;;11.46
71640;BMP280;60912;48.968;10.124;2022-10-31T00:44:16;97136.03;;;11.37
71640;BMP280;60912;48.968;10.124;2022-10-31T00:46:42;97139.13;;;11.33
71640;BMP280;60912;48.968;10.124;2022-10-31T00:49:07;97141.22;;;11.40
71640;BMP280;60912;48.968;10.124;2022-10-31T00:51:32;97139.63;;;11.45
71640;BMP280;60912;48.968;10.124;2022-10-31T00:53:58;97131.56;;;11.47
71640;BMP280;60912;48.968;10.124;2022-10-31T00:56:23;97139.63;;;11.45
71640;BMP280;60912;48.968;10.124;2022-10-31T00:58:56;97134.38;;;11.34
71640;BMP280;60912;48.968;10.124;2022-10-31T01:01:30;97131.59;;;11.34
71640;BMP280;60912;48.968;10.124;2022-10-31T01:04:10;97137.88;;;11.34
71640;BMP280;60912;48.968;10.124;2022-10-31T01:06:45;97152.78;;;11.39
71640;BMP280;60912;48.968;10.124;2022-10-31T01:09:13;97143.91;;;11.33
71640;BMP280;60912;48.968;10.124;2022-10-31T01:11:48;97145.81;;;11.38
71640;BMP280;60912;48.968;10.124;2022-10-31T01:14:16;97136.50;;;11.28
71640;BMP280;60912;48.968;10.124;2022-10-31T01:16:42;97136.28;;;11.26
71640;BMP280;60912;48.968;10.124;2022-10-31T01:19:07;97133.97;;;11.17
71640;BMP280;60912;48.968;10.124;2022-10-31T01:21:35;97147.44;;;11.20
71640;BMP280;60912;48.968;10.124;2022-10-31T01:24:00;97127.91;;;11.18
71640;BMP280;60912;48.968;10.124;2022-10-31T01:26:30;97137.75;;;11.14
71640;BMP280;60912;48.968;10.124;2022-10-31T01:29:02;97144.59;;;11.13
71640;BMP280;60912;48.968;10.124;2022-10-31T01:31:30;97130.91;;;10.94
71640;BMP280;60912;48.968;10.124;2022-10-31T01:33:56;97139.72;;;10.92
71640;BMP280;60912;48.968;10.124;2022-10-31T01:36:30;97135.28;;;10.89
71640;BMP280;60912;48.968;10.124;2022-10-31T01:39:01;97126.81;;;10.87
71640;BMP280;60912;48.968;10.124;2022-10-31T01:41:30;97131.22;;;10.77
71640;BMP280;60912;48.968;10.124;2022-10-31T01:43:58;97126.59;;;10.72
71640;BMP280;60912;48.968;10.124;2022-10-31T01:46:31;97122.66;;;10.81
71640;BMP280;60912;48.968;10.124;2022-10-31T01:49:00;97121.41;;;10.82
71640;BMP280;60912;48.968;10.124;2022-10-31T01:51:30;97123.81;;;10.85
71640;BMP280;60912;48.968;10.124;2022-10-31T01:54:02;97119.06;;;10.86
71640;BMP280;60912;48.968;10.124;2022-10-31T01:56:29;97122.97;;;10.77
71640;BMP280;60912;48.968;10.124;2022-10-31T01:58:57;97121.69;;;10.65
71640;BMP280;60912;48.968;10.124;2022-10-31T02:01:25;97127.22;;;10.65
71640;BMP280;60912;48.968;10.124;2022-10-31T02:03:50;97119.78;;;10.60
71640;BMP280;60912;48.968;10.124;2022-10-31T02:06:26;97120.63;;;10.68
71640;BMP280;60912;48.968;10.124;2022-10-31T02:08:55;97123.94;;;10.80
71640;BMP280;60912;48.968;10.124;2022-10-31T02:11:22;97113.84;;;10.69
71640;BMP280;60912;48.968;10.124;2022-10-31T02:13:47;97105.59;;;10.69
71640;BMP280;60912;48.968;10.124;2022-10-31T02:16:13;97103.78;;;10.58
71640;BMP280;60912;48.968;10.124;2022-10-31T02:18:38;97104.31;;;10.57
71640;BMP280;60912;48.968;10.124;2022-10-31T02:21:23;97107.19;;;10.64
71640;BMP280;60912;48.968;10.124;2022-10-31T02:24:17;97114.69;;;10.64
71640;BMP280;60912;48.968;10.124;2022-10-31T02:27:21;97110.88;;;10.54
71640;BMP280;60912;48.968;10.124;2022-10-31T02:40:51;97104.41;;;10.78
71640;BMP280;60912;48.968;10.124;2022-10-31T02:43:20;97105.59;;;10.82
71640;BMP280;60912;48.968;10.124;2022-10-31T02:45:53;97106.41;;;10.77
71640;BMP280;60912;48.968;10.124;2022-10-31T02:48:24;97099.78;;;10.73
71640;BMP280;60912;48.968;10.124;2022-10-31T02:50:55;97099.78;;;10.73
71640;BMP280;60912;48.968;10.124;2022-10-31T02:53:22;97108.78;;;10.73
71640;BMP280;60912;48.968;10.124;2022-10-31T02:55:56;97114.59;;;10.70
71640;BMP280;60912;48.968;10.124;2022-10-31T02:58:26;97108.13;;;10.54
71640;BMP280;60912;48.968;10.124;2022-10-31T03:13:05;97110.34;;;10.55
71640;BMP280;60912;48.968;10.124;2022-10-31T03:15:39;97102.84;;;10.56
71640;BMP280;60912;48.968;10.124;2022-10-31T03:18:14;97112.59;;;10.57
71640;BMP280;60912;48.968;10.124;2022-10-31T03:20:45;97110.47;;;10.63
71640;BMP280;60912;48.968;10.124;2022-10-31T03:23:15;97103.25;;;10.60
71640;BMP280;60912;48.968;10.124;2022-10-31T03:25:42;97108.34;;;10.56
71640;BMP280;60912;48.968;10.124;2022-10-31T03:28:10;97108.03;;;10.59
71640;BMP280;60912;48.968;10.124;2022-10-31T03:30:38;97100.91;;;10.51
71640;BMP280;60912;48.968;10.124;2022-10-31T03:33:11;97102.38;;;10.39
71640;BMP280;60912;48.968;10.124;2022-10-31T03:35:41;97111.50;;;10.34
71640;BMP280;60912;48.968;10.124;2022-10-31T03:38:08;97107.69;;;10.37
71640;BMP280;60912;48.968;10.124;2022-10-31T03:40:35;97100.06;;;10.43
71640;BMP280;60912;48.968;10.124;2022-10-31T03:43:08;97107.91;;;10.39
71640;BMP280;60912;48.968;10.124;2022-10-31T03:45:40;97107.16;;;10.38
71640;BMP280;60912;48.968;10.124;2022-10-31T03:48:07;97109.16;;;10.38
71640;BMP280;60912;48.968;10.124;2022-10-31T03:50:39;97107.06;;;10.44
71640;BMP280;60912;48.968;10.124;2022-10-31T03:53:14;97107.91;;;10.52
71640;BMP280;60912;48.968;10.124;2022-10-31T03:55:51;97105.38;;;10.54
71640;BMP280;60912;48.968;10.124;2022-10-31T03:58:24;97111.41;;;10.39
71640;BMP280;60912;48.968;10.124;2022-10-31T04:00:51;97103.44;;;10.23
71640;BMP280;60912;48.968;10.124;2022-10-31T04:03:24;97113.19;;;10.24
71640;BMP280;60912;48.968;10.124;2022-10-31T04:05:52;97103.72;;;10.19
71640;BMP280;60912;48.968;10.124;2022-10-31T04:08:23;97107.69;;;10.24
71640;BMP280;60912;48.968;10.124;2022-10-31T04:10:51;97102.81;;;10.30
71640;BMP280;60912;48.968;10.124;2022-10-31T04:13:27;97110.22;;;10.35
71640;BMP280;60912;48.968;10.124;2022-10-31T04:15:54;97106.22;;;10.36
71640;BMP280;60912;48.968;10.124;2022-10-31T04:18:22;97111.19;;;10.24
71640;BMP280;60912;48.968;10.124;2022-10-31T04:20:48;97099.81;;;10.28
71640;BMP280;60912;48.968;10.124;2022-10-31T04:23:22;97102.94;;;10.37
71640;BMP280;60912;48.968;10.124;2022-10-31T04:25:48;97109.16;;;10.38
71640;BMP280;60912;48.968;10.124;2022-10-31T04:28:13;97102.69;;;10.22
71640;BMP280;60912;48.968;10.124;2022-10-31T04:30:39;97092.72;;;10.19
71640;BMP280;60912;48.968;10.124;2022-10-31T04:33:04;97095.19;;;10.23
71640;BMP280;60912;48.968;10.124;2022-10-31T04:35:55;97093.84;;;9.97
71640;BMP280;60912;48.968;10.124;2022-10-31T04:38:24;97096.84;;;9.99
71640;BMP280;60912;48.968;10.124;2022-10-31T04:40:49;97092.44;;;9.91
71640;BMP280;60912;48.968;10.124;2022-10-31T04:43:14;97103.16;;;9.94
71640;BMP280;60912;48.968;10.124;2022-10-31T04:45:40;97097.41;;;9.92
71640;BMP280;60912;48.968;10.124;2022-10-31T04:48:05;97089.16;;;9.92
71640;BMP280;60912;48.968;10.124;2022-10-31T04:50:30;97092.75;;;9.87
71640;BMP280;60912;48.968;10.124;2022-10-31T04:52:56;97088.09;;;9.82
71640;BMP280;60912;48.968;10.124;2022-10-31T04:55:27;97083.31;;;9.83
71640;BMP280;60912;48.968;10.124;2022-10-31T04:57:52;97085.97;;;9.88
71640;BMP280;60912;48.968;10.124;2022-10-31T05:00:20;97090.13;;;9.95
71640;BMP280;60912;48.968;10.124;2022-10-31T05:02:50;97076.06;;;9.98
71640;BMP280;60912;48.968;10.124;2022-10-31T05:05:28;97075.97;;;10.04
71640;BMP280;60912;48.968;10.124;2022-10-31T05:07:54;97069.81;;;9.98
71640;BMP280;60912;48.968;10.124;2022-10-31T05:10:22;97080.09;;;9.97
71640;BMP280;60912;48.968;10.124;2022-10-31T05:12:57;97080.09;;;9.97
71640;BMP280;60912;48.968;10.124;2022-10-31T05:15:39;97079.09;;;9.82
71640;BMP280;60912;48.968;10.124;2022-10-31T05:18:34;97074.34;;;9.82
71640;BMP280;60912;48.968;10.124;2022-10-31T05:21:14;97072.63;;;9.79
71640;BMP280;60912;48.968;10.124;2022-10-31T05:23:42;97076.63;;;9.78
71640;BMP280;60912;48.968;10.124;2022-10-31T05:26:23;97069.13;;;9.78
71640;BMP280;60912;48.968;10.124;2022-10-31T05:28:52;97074.50;;;9.71
71640;BMP280;60912;48.968;10.124;2022-10-31T05:31:17;97071.97;;;9.73
71640;BMP280;60912;48.968;10.124;2022-10-31T05:33:50;97072.16;;;9.75
71640;BMP280;60912;48.968;10.124;2022-10-31T05:36:25;97075.13;;;9.77
71640;BMP280;60912;48.968;10.124;2022-10-31T05:39:04;97063.84;;;9.81
71640;BMP280;60912;48.968;10.124;2022-10-31T05:41:29;97061.09;;;9.81
71640;BMP280;60912;48.968;10.124;2022-10-31T05:43:55;97054.00;;;9.85
71640;BMP280;60912;48.968;10.124;2022-10-31T05:46:20;97062.13;;;9.77
71640;BMP280;60912;48.968;10.124;2022-10-31T05:48:45;97055.25;;;9.71
71640;BMP280;60912;48.968;10.124;2022-10-31T05:51:12;97054.34;;;9.63
71640;BMP280;60912;48.968;10.124;2022-10-31T05:53:37;97052.44;;;9.58
71640;BMP280;60912;48.968;10.124;2022-10-31T05:56:03;97049.91;;;9.60
71640;BMP280;60912;48.968;10.124;2022-10-31T05:58:28;97048.50;;;9.53
71640;BMP280;60912;48.968;10.124;2022-10-31T06:01:07;97051.59;;;9.63
71640;BMP280;60912;48.968;10.124;2022-10-31T06:03:33;97044.22;;;9.71
71640;BMP280;60912;48.968;10.124;2022-10-31T06:05:58;97047.22;;;9.73
71640;BMP280;60912;48.968;10.124;2022-10-31T06:08:26;97048.06;;;9.81
71640;BMP280;60912;48.968;10.124;2022-10-31T06:10:55;97040.84;;;9.78
71640;BMP280;60912;48.968;10.124;2022-10-31T06:13:20;97048.59;;;9.79
71640;BMP280;60912;48.968;10.124;2022-10-31T06:15:46;97040.88;;;9.91
71640;BMP280;60912;48.968;10.124;2022-10-31T06:18:14;97056.63;;;9.91
71640;BMP280;60912;48.968;10.124;2022-10-31T06:20:45;97056.06;;;9.98
71640;BMP280;60912;48.968;10.124;2022-10-31T06:23:17;97056.59;;;10.09
71640;BMP280;60912;48.968;10.124;2022-10-31T06:28:42;97057.13;;;10.21
71640;BMP280;60912;48.968;10.124;2022-10-31T06:31:07;97047.25;;;10.78
71640;BMP280;60912;48.968;10.124;2022-10-31T06:33:43;97047.22;;;12.01
71640;BMP280;60912;48.968;10.124;2022-10-31T06:36:09;97048.50;;;13.30
71640;BMP280;60912;48.968;10.124;2022-10-31T06:38:40;97049.63;;;14.73
71640;BMP280;60912;48.968;10.124;2022-10-31T06:41:08;97044.31;;;15.99
71640;BMP280;60912;48.968;10.124;2022-10-31T06:43:36;97043.13;;;17.24
71640;BMP280;60912;48.968;10.124;2022-10-31T06:46:03;97043.47;;;18.51
71640;BMP280;60912;48.968;10.124;2022-10-31T06:48:32;97039.13;;;19.29
71640;BMP280;60912;48.968;10.124;2022-10-31T06:51:16;97039.75;;;20.33
71640;BMP280;60912;48.968;10.124;2022-10-31T06:53:47;97042.31;;;21.31
71640;BMP280;60912;48.968;10.124;2022-10-31T06:56:13;97045.06;;;21.66
71640;BMP280;60912;48.968;10.124;2022-10-31T06:58:38;97040.91;;;22.16
71640;BMP280;60912;48.968;10.124;2022-10-31T07:01:06;97042.34;;;22.42
71640;BMP280;60912;48.968;10.124;2022-10-31T07:03:32;97039.97;;;22.89
71640;BMP280;60912;48.968;10.124;2022-10-31T07:06:02;97039.28;;;23.43
71640;BMP280;60912;48.968;10.124;2022-10-31T07:08:30;97041.44;;;23.72
71640;BMP280;60912;48.968;10.124;2022-10-31T07:10:59;97042.47;;;23.64
71640;BMP280;60912;48.968;10.124;2022-10-31T07:13:24;97038.19;;;22.18
71640;BMP280;60912;48.968;10.124;2022-10-31T07:15:52;97041.50;;;20.50
71640;BMP280;60912;48.968;10.124;2022-10-31T07:18:36;97054.53;;;18.99
71640;BMP280;60912;48.968;10.124;2022-10-31T07:21:07;97046.63;;;17.61
71640;BMP280;60912;48.968;10.124;2022-10-31T07:23:40;97043.19;;;16.53
71640;BMP280;60912;48.968;10.124;2022-10-31T07:26:10;97046.41;;;15.74
71640;BMP280;60912;48.968;10.124;2022-10-31T07:28:43;97048.16;;;15.12
71640;BMP280;60912;48.968;10.124;2022-10-31T07:31:11;97045.50;;;14.89
71640;BMP280;60912;48.968;10.124;2022-10-31T07:33:37;97051.50;;;14.70
71640;BMP280;60912;48.968;10.124;2022-10-31T07:36:05;97046.03;;;14.48
71640;BMP280;60912;48.968;10.124;2022-10-31T07:38:41;97046.09;;;14.17
71640;BMP280;60912;48.968;10.124;2022-10-31T07:41:09;97055.00;;;14.01
71640;BMP280;60912;48.968;10.124;2022-10-31T07:43:42;97050.56;;;13.82
71640;BMP280;60912;48.968;10.124;2022-10-31T07:46:08;97051.34;;;13.75
71640;BMP280;60912;48.968;10.124;2022-10-31T07:48:53;97050.22;;;13.63
71640;BMP280;60912;48.968;10.124;2022-10-31T07:51:21;97051.13;;;13.58
71640;BMP280;60912;48.968;10.124;2022-10-31T07:53:48;97050.94;;;13.64
71640;BMP280;60912;48.968;10.124;2022-10-31T07:56:17;97048.38;;;13.89
71640;BMP280;60912;48.968;10.124;2022-10-31T07:58:42;97048.31;;;14.19
71640;BMP280;60912;48.968;10.124;2022-10-31T08:01:11;97042.72;;;14.42
71640;BMP280;60912;48.968;10.124;2022-10-31T08:03:39;97048.97;;;14.50
71640;BMP280;60912;48.968;10.124;2022-10-31T08:06:14;97047.44;;;14.71
71640;BMP280;60912;48.968;10.124;2022-10-31T08:08:42;97042.94;;;14.84
71640;BMP280;60912;48.968;10.124;2022-10-31T08:11:36;97040.88;;;14.92
71640;BMP280;60912;48.968;10.124;2022-10-31T08:14:05;97040.97;;;15.01
71640;BMP280;60912;48.968;10.124;2022-10-31T08:16:31;97041.91;;;15.04
71640;BMP280;60912;48.968;10.124;2022-10-31T08:18:56;97031.59;;;15.21
71640;BMP280;60912;48.968;10.124;2022-10-31T08:21:22;97040.50;;;15.20
71640;BMP280;60912;48.968;10.124;2022-10-31T08:23:47;97031.59;;;15.29
71640;BMP280;60912;48.968;10.124;2022-10-31T08:26:13;97032.81;;;15.60
71640;BMP280;60912;48.968;10.124;2022-10-31T08:28:44;97022.28;;;15.76
71640;BMP280;60912;48.968;10.124;2022-10-31T08:31:09;97030.72;;;15.86
71640;BMP280;60912;48.968;10.124;2022-10-31T08:33:37;97028.22;;;16.14
71640;BMP280;60912;48.968;10.124;2022-10-31T08:36:05;97026.81;;;16.40
71640;BMP280;60912;48.968;10.124;2022-10-31T08:38:34;97020.75;;;16.51
71640;BMP280;60912;48.968;10.124;2022-10-31T08:41:04;97026.41;;;16.71
71640;BMP280;60912;48.968;10.124;2022-10-31T08:43:32;97023.03;;;16.89
71640;BMP280;60912;48.968;10.124;2022-10-31T08:45:57;97015.94;;;17.05
71640;BMP280;60912;48.968;10.124;2022-10-31T08:48:59;97022.09;;;17.04
71640;BMP280;60912;48.968;10.124;2022-10-31T08:51:27;97020.56;;;16.66
71640;BMP280;60912;48.968;10.124;2022-10-31T08:53:58;97009.56;;;16.68
71640;BMP280;60912;48.968;10.124;2022-10-31T08:56:26;97018.56;;;16.77
71640;BMP280;60912;48.968;10.124;2022-10-31T08:58:53;97020.22;;;16.89
71640;BMP280;60912;48.968;10.124;2022-10-31T09:01:18;97021.06;;;17.09
71640;BMP280;60912;48.968;10.124;2022-10-31T09:03:46;97015.44;;;17.36
71640;BMP280;60912;48.968;10.124;2022-10-31T09:06:11;97016.22;;;17.46
71640;BMP280;60912;48.968;10.124;2022-10-31T09:08:37;97009.81;;;17.53
71640;BMP280;60912;48.968;10.124;2022-10-31T09:11:03;97008.63;;;17.56
71640;BMP280;60912;48.968;10.124;2022-10-31T09:13:29;97017.19;;;17.67
71640;BMP280;60912;48.968;10.124;2022-10-31T09:15:56;97004.28;;;17.82
71640;BMP280;60912;48.968;10.124;2022-10-31T09:18:22;97002.81;;;18.00
71640;BMP280;60912;48.968;10.124;2022-10-31T09:20:48;97003.25;;;18.15
71640;BMP280;60912;48.968;10.124;2022-10-31T09:23:16;96998.81;;;18.41
71640;BMP280;60912;48.968;10.124;2022-10-31T09:25:42;97000.41;;;18.54
71640;BMP280;60912;48.968;10.124;2022-10-31T09:28:10;97001.28;;;18.66
71640;BMP280;60912;48.968;10.124;2022-10-31T09:30:36;97003.56;;;18.89
71640;BMP280;60912;48.968;10.124;2022-10-31T09:33:04;97000.00;;;18.98
71640;BMP280;60912;48.968;10.124;2022-10-31T09:35:31;97000.81;;;19.10
71640;BMP280;60912;48.968;10.124;2022-10-31T09:38:04;96998.06;;;19.31
71640;BMP280;60912;48.968;10.124;2022-10-31T09:40:34;97003.38;;;19.27
71640;BMP280;60912;48.968;10.124;2022-10-31T09:51:07;96997.69;;;19.46
71640;BMP280;60912;48.968;10.124;2022-10-31T09:56:07;96993.69;;;19.28
71640;BMP280;60912;48.968;10.124;2022-10-31T09:58:43;96992.06;;;19.25
71640;BMP280;60912;48.968;10.124;2022-10-31T10:01:21;96995.78;;;19.18
71640;BMP280;60912;48.968;10.124;2022-10-31T10:03:50;96992.94;;;19.28
71640;BMP280;60912;48.968;10.124;2022-10-31T10:06:21;96992.47;;;19.31
71640;BMP280;60912;48.968;10.124;2022-10-31T10:08:47;96991.56;;;19.38
71640;BMP280;60912;48.968;10.124;2022-10-31T10:11:35;96983.06;;;19.57
71640;BMP280;60912;48.968;10.124;2022-10-31T10:14:34;96982.25;;;19.66
71640;BMP280;60912;48.968;10.124;2022-10-31T10:22:58;96979.44;;;19.88
71640;BMP280;60912;48.968;10.124;2022-10-31T10:25:40;96973.22;;;20.22
71640;BMP280;60912;48.968;10.124;2022-10-31T10:28:25;96972.03;;;20.25
71640;BMP280;60912;48.968;10.124;2022-10-31T10:31:12;96971.81;;;20.21
71640;BMP280;60912;48.968;10.124;2022-10-31T10:38:54;96962.13;;;20.45
71640;BMP280;60912;48.968;10.124;2022-10-31T10:41:22;96957.41;;;20.59
71640;BMP280;60912;48.968;10.124;2022-10-31T10:43:50;96953.75;;;20.80
71640;BMP280;60912;48.968;10.124;2022-10-31T10:49:22;96948.75;;;20.90
71640;BMP280;60912;48.968;10.124;2022-10-31T10:58:06;96941.34;;;20.83
71640;BMP280;60912;48.968;10.124;2022-10-31T11:03:01;96947.53;;;20.81
71640;BMP280;60912;48.968;10.124;2022-10-31T11:08:08;96935.81;;;21.20
71640;BMP280;60912;48.968;10.124;2022-10-31T11:10:35;96937.28;;;21.09
71640;BMP280;60912;48.968;10.124;2022-10-31T11:15:39;96933.47;;;21.28
71640;BMP280;60912;48.968;10.124;2022-10-31T11:18:20;96930.25;;;21.45
71640;BMP280;60912;48.968;10.124;2022-10-31T11:20:51;96921.78;;;21.68
71640;BMP280;60912;48.968;10.124;2022-10-31T11:23:19;96921.28;;;21.72
71640;BMP280;60912;48.968;10.124;2022-10-31T11:25:58;96921.03;;;21.68
71640;BMP280;60912;48.968;10.124;2022-10-31T11:28:27;96911.63;;;21.26
71640;BMP280;60912;48.968;10.124;2022-10-31T11:30:59;96912.75;;;21.33
71640;BMP280;60912;48.968;10.124;2022-10-31T11:33:40;96902.19;;;21.45
71640;BMP280;60912;48.968;10.124;2022-10-31T11:36:23;96909.47;;;21.13
71640;BMP280;60912;48.968;10.124;2022-10-31T11:38:49;96905.97;;;20.90
71640;BMP280;60912;48.968;10.124;2022-10-31T11:41:17;96904.50;;;21.00
71640;BMP280;60912;48.968;10.124;2022-10-31T11:43:53;96908.19;;;20.91
71640;BMP280;60912;48.968;10.124;2022-10-31T11:46:29;96900.78;;;20.84
71640;BMP280;60912;48.968;10.124;2022-10-31T11:48:57;96892.25;;;20.82
71640;BMP280;60912;48.968;10.124;2022-10-31T11:51:33;96885.41;;;20.73
71640;BMP280;60912;48.968;10.124;2022-10-31T11:54:01;96892.97;;;20.83
71640;BMP280;60912;48.968;10.124;2022-10-31T11:56:37;96877.84;;;20.88
71640;BMP280;60912;48.968;10.124;2022-10-31T11:59:12;96885.16;;;20.93
71640;BMP280;60912;48.968;10.124;2022-10-31T12:01:40;96875.56;;;20.49
71640;BMP280;60912;48.968;10.124;2022-10-31T12:04:12;96874.59;;;20.56
71640;BMP280;60912;48.968;10.124;2022-10-31T12:06:43;96876.88;;;20.60
71640;BMP280;60912;48.968;10.124;2022-10-31T12:09:29;96868.59;;;20.39
71640;BMP280;60912;48.968;10.124;2022-10-31T12:12:34;96866.28;;;20.35
71640;BMP280;60912;48.968;10.124;2022-10-31T12:15:25;96863.38;;;20.68
71640;BMP280;60912;48.968;10.124;2022-10-31T12:18:02;96861.47;;;20.59
71640;BMP280;60912;48.968;10.124;2022-10-31T12:20:54;96864.97;;;20.83
71640;BMP280;60912;48.968;10.124;2022-10-31T12:23:29;96866.88;;;20.92
71640;BMP280;60912;48.968;10.124;2022-10-31T12:59:38;96813.44;;;20.64
71640;BMP280;60912;48.968;10.124;2022-10-31T13:05:33;96815.38;;;20.73
71640;BMP280;60912;48.968;10.124;2022-10-31T13:08:39;96803.84;;;20.67
71640;BMP280;60912;48.968;10.124;2022-10-31T13:11:10;96795.78;;;20.73
71640;BMP280;60912;48.968;10.124;2022-10-31T13:13:38;96797.59;;;20.80
71640;BMP280;60912;48.968;10.124;2022-10-31T13:16:45;96795.56;;;20.69
71640;BMP280;60912;48.968;10.124;2022-10-31T13:27:03;96779.16;;;21.01
71640;BMP280;60912;48.968;10.124;2022-10-31T13:29:58;96780.53;;;20.88
71640;BMP280;60912;48.968;10.124;2022-10-31T13:33:15;96767.16;;;20.75
71640;BMP280;60912;48.968;10.124;2022-10-31T13:44:39;96757.97;;;20.49
71640;BMP280;60912;48.968;10.124;2022-10-31T13:47:29;96752.25;;;20.59
71640;BMP280;60912;48.968;10.124;2022-10-31T13:50:26;96753.72;;;20.37
71640;BMP280;60912;48.968;10.124;2022-10-31T13:53:09;96746.56;;;20.34
71640;BMP280;60912;48.968;10.124;2022-10-31T13:55:48;96746.91;;;20.28
71640;BMP280;60912;48.968;10.124;2022-10-31T13:58:28;96748.00;;;20.23
71640;BMP280;60912;48.968;10.124;2022-10-31T14:01:20;96745.94;;;20.12
71640;BMP280;60912;48.968;10.124;2022-10-31T14:04:14;96743.88;;;20.12
71640;BMP280;60912;48.968;10.124;2022-10-31T14:06:53;96741.22;;;20.03
71640;BMP280;60912;48.968;10.124;2022-10-31T14:09:30;96738.00;;;19.97
71640;BMP280;60912;48.968;10.124;2022-10-31T14:15:21;96720.66;;;19.87
71640;BMP280;60912;48.968;10.124;2022-10-31T14:18:31;96719.78;;;19.84
71640;BMP280;60912;48.968;10.124;2022-10-31T14:23:54;96716.75;;;19.80
71640;BMP280;60912;48.968;10.124;2022-10-31T14:29:03;96714.28;;;19.63
71640;BMP280;60912;48.968;10.124;2022-10-31T14:31:53;96713.81;;;19.66
71640;BMP280;60912;48.968;10.124;2022-10-31T14:34:28;96713.94;;;19.80
71640;BMP280;60912;48.968;10.124;2022-10-31T14:37:12;96712.03;;;19.83
71640;BMP280;60912;48.968;10.124;2022-10-31T14:42:36;96716.59;;;19.66
71640;BMP280;60912;48.968;10.124;2022-10-31T14:50:54;96697.75;;;19.55
71640;BMP280;60912;48.968;10.124;2022-10-31T14:53:57;96702.22;;;19.49
71640;BMP280;60912;48.968;10.124;2022-10-31T14:56:33;96697.50;;;19.51
71640;BMP280;60912;48.968;10.124;2022-10-31T14:59:08;96691.91;;;19.63
71640;BMP280;60912;48.968;10.124;2022-10-31T15:01:41;96688.78;;;19.68
71640;BMP280;60912;48.968;10.124;2022-10-31T15:04:33;96700.94;;;19.61
71640;BMP280;60912;48.968;10.124;2022-10-31T15:07:19;96703.25;;;19.65
71640;BMP280;60912;48.968;10.124;2022-10-31T15:10:04;96695.97;;;19.83
71640;BMP280;60912;48.968;10.124;2022-10-31T15:12:33;96690.47;;;19.73
71640;BMP280;60912;48.968;10.124;2022-10-31T15:15:24;96694.72;;;19.63
71640;BMP280;60912;48.968;10.124;2022-10-31T15:17:54;96692.44;;;19.71
71640;BMP280;60912;48.968;10.124;2022-10-31T15:20:42;96693.38;;;19.75
71640;BMP280;60912;48.968;10.124;2022-10-31T15:23:30;96699.25;;;19.68
71640;BMP280;60912;48.968;10.124;2022-10-31T15:26:04;96708.69;;;19.63
71640;BMP280;60912;48.968;10.124;2022-10-31T15:28:31;96703.34;;;19.44
71640;BMP280;60912;48.968;10.124;2022-10-31T15:31:16;96691.59;;;19.24
71640;BMP280;60912;48.968;10.124;2022-10-31T15:33:47;96688.31;;;19.16
71640;BMP280;60912;48.968;10.124;2022-10-31T15:36:22;96703.13;;;19.18
71640;BMP280;60912;48.968;10.124;2022-10-31T15:38:51;96689.50;;;19.13
71640;BMP280;60912;48.968;10.124;2022-10-31T15:44:11;96687.28;;;19.00
71640;BMP280;60912;48.968;10.124;2022-10-31T15:46:40;96692.22;;;18.90
71640;BMP280;60912;48.968;10.124;2022-10-31T15:49:19;96689.78;;;18.84
71640;BMP280;60912;48.968;10.124;2022-10-31T15:51:50;96682.31;;;18.77
71640;BMP280;60912;48.968;10.124;2022-10-31T15:54:18;96676.81;;;18.67
71640;BMP280;60912;48.968;10.124;2022-10-31T15:56:43;96678.25;;;18.57
71640;BMP280;60912;48.968;10.124;2022-10-31T15:59:34;96676.81;;;18.46
71640;BMP280;60912;48.968;10.124;2022-10-31T16:02:22;96667.53;;;18.32
71640;BMP280;60912;48.968;10.124;2022-10-31T16:05:19;96660.09;;;18.25
71640;BMP280;60912;48.968;10.124;2022-10-31T16:07:52;96660.75;;;18.14
71640;BMP280;60912;48.968;10.124;2022-10-31T16:10:23;96671.03;;;18.11
71640;BMP280;60912;48.968;10.124;2022-10-31T16:13:02;96672.53;;;18.03
71640;BMP280;60912;48.968;10.124;2022-10-31T16:15:33;96679.66;;;17.85
71640;BMP280;60912;48.968;10.124;2022-10-31T16:18:03;96684.16;;;17.59
71640;BMP280;60912;48.968;10.124;2022-10-31T16:21:09;96676.91;;;17.25
71640;BMP280;60912;48.968;10.124;2022-10-31T16:23:47;96677.81;;;17.18
71640;BMP280;60912;48.968;10.124;2022-10-31T16:26:35;96681.63;;;17.13
71640;BMP280;60912;48.968;10.124;2022-10-31T16:29:45;96684.53;;;16.96
71640;BMP280;60912;48.968;10.124;2022-10-31T16:35:16;96677.22;;;16.81
71640;BMP280;60912;48.968;10.124;2022-10-31T16:37:45;96684.09;;;16.71
71640;BMP280;60912;48.968;10.124;2022-10-31T16:40:12;96685.41;;;16.60
71640;BMP280;60912;48.968;10.124;2022-10-31T16:42:42;96697.44;;;16.53
71640;BMP280;60912;48.968;10.124;2022-10-31T16:45:20;96692.44;;;16.51
71640;BMP280;60912;48.968;10.124;2022-10-31T16:48:08;96693.19;;;16.42
71640;BMP280;60912;48.968;10.124;2022-10-31T16:50:44;96684.44;;;16.19
71640;BMP280;60912;48.968;10.124;2022-10-31T16:53:21;96691.19;;;16.16